createdAt,value
2022-08-19T00:00:35.394Z,32.53
2022-08-19T00:03:06.751Z,32.61
2022-08-19T00:05:37.529Z,32.66
2022-08-19T00:08:08.199Z,32.71
2022-08-19T00:10:38.922Z,32.72
2022-08-19T00:13:10.573Z,32.72
2022-08-19T00:15:41.189Z,32.85
2022-08-19T00:18:11.886Z,32.75
2022-08-19T00:20:42.896Z,32.71
2022-08-19T00:23:13.640Z,32.82
2022-08-19T00:25:45.068Z,32.73
2022-08-19T00:28:19.982Z,32.63
2022-08-19T00:30:52.785Z,32.79
2022-08-19T00:33:23.536Z,32.95
2022-08-19T00:35:56.019Z,32.94
2022-08-19T00:38:37.505Z,32.76
2022-08-19T00:41:10.435Z,32.85
2022-08-19T00:43:41.598Z,32.90
2022-08-19T00:46:12.372Z,32.84
2022-08-19T00:48:43.207Z,32.68
2022-08-19T00:51:13.940Z,33.16
2022-08-19T00:53:45.318Z,32.86
2022-08-19T00:56:16.494Z,32.87
2022-08-19T00:58:47.532Z,32.83
2022-08-19T01:01:18.609Z,33.06
2022-08-19T01:03:58.014Z,32.99
2022-08-19T01:06:33.492Z,33.22
2022-08-19T01:09:04.456Z,33.44
2022-08-19T01:11:38.584Z,33.43
2022-08-19T01:14:10.981Z,33.43
2022-08-19T01:16:44.204Z,33.43
2022-08-19T01:19:23.770Z,33.35
2022-08-19T01:22:10.604Z,33.47
2022-08-19T01:24:46.741Z,33.85
2022-08-19T01:27:21.161Z,33.58
2022-08-19T01:29:52.068Z,34.12
2022-08-19T01:32:33.334Z,34.00
2022-08-19T01:35:06.128Z,34.12
2022-08-19T01:37:48.473Z,33.87
2022-08-19T01:40:21.403Z,34.05
2022-08-19T01:42:53.730Z,33.97
2022-08-19T01:45:27.716Z,34.49
2022-08-19T01:48:02.313Z,34.54
2022-08-19T01:50:35.204Z,34.55
2022-08-19T01:53:08.783Z,34.35
2022-08-19T01:55:42.708Z,34.37
2022-08-19T01:58:17.669Z,34.55
2022-08-19T02:00:48.789Z,34.49
2022-08-19T02:03:20.268Z,34.63
2022-08-19T02:05:55.620Z,34.62
2022-08-19T02:08:26.590Z,34.84
2022-08-19T02:10:57.395Z,34.77
2022-08-19T02:13:29.238Z,35.00
2022-08-19T02:16:00.033Z,34.99
2022-08-19T02:18:31.236Z,34.90
2022-08-19T02:21:02.050Z,34.77
2022-08-19T02:23:33.425Z,34.77
2022-08-19T02:26:04.467Z,34.82
2022-08-19T02:28:35.684Z,34.98
2022-08-19T02:31:10.938Z,34.90
2022-08-19T02:33:41.967Z,35.25
2022-08-19T02:36:15.524Z,35.40
2022-08-19T02:38:47.690Z,35.25
2022-08-19T02:41:31.915Z,35.34
2022-08-19T02:44:29.362Z,35.08
2022-08-19T02:46:56.937Z,35.10
2022-08-19T02:49:27.636Z,35.16
2022-08-19T02:51:58.311Z,35.55
2022-08-19T02:54:29.670Z,35.44
2022-08-19T02:57:00.840Z,35.54
2022-08-19T02:59:33.770Z,35.51
2022-08-19T03:02:04.955Z,35.42
2022-08-19T03:04:35.655Z,35.41
2022-08-19T03:07:10.674Z,35.50
2022-08-19T03:09:43.421Z,36.05
2022-08-19T03:12:14.150Z,36.09
2022-08-19T03:14:44.825Z,36.53
2022-08-19T03:17:15.538Z,36.68
2022-08-19T03:19:46.513Z,36.50
2022-08-19T03:22:17.278Z,36.58
2022-08-19T03:24:48.619Z,36.85
2022-08-19T03:27:19.687Z,36.62
2022-08-19T03:29:50.333Z,36.90
2022-08-19T03:32:32.307Z,36.98
2022-08-19T03:35:04.138Z,36.70
2022-08-19T03:37:34.911Z,36.88
2022-08-19T03:40:07.232Z,36.73
2022-08-19T03:42:49.167Z,36.74
2022-08-19T03:45:20.949Z,37.13
2022-08-19T03:47:52.000Z,37.44
2022-08-19T03:50:22.681Z,37.24
2022-08-19T03:52:54.692Z,37.37
2022-08-19T03:55:25.451Z,37.50
2022-08-19T03:57:59.235Z,37.26
2022-08-19T04:00:30.499Z,37.19
2022-08-19T04:03:01.929Z,37.40
2022-08-19T04:05:33.336Z,37.14
2022-08-19T04:08:04.785Z,37.34
2022-08-19T04:10:39.377Z,37.37
2022-08-19T04:13:10.126Z,37.24
2022-08-19T04:15:45.279Z,37.16
2022-08-19T04:18:16.581Z,37.18
2022-08-19T04:20:49.856Z,37.18
2022-08-19T04:23:19.783Z,37.22
2022-08-19T04:25:50.894Z,37.27
2022-08-19T04:28:21.745Z,37.29
2022-08-19T04:30:55.314Z,37.34
2022-08-19T04:33:29.626Z,37.47
2022-08-19T04:36:01.322Z,37.62
2022-08-19T04:38:32.020Z,37.84
2022-08-19T04:41:22.732Z,38.00
2022-08-19T04:43:53.467Z,38.32
2022-08-19T04:46:39.493Z,38.10
2022-08-19T04:49:13.618Z,38.16
2022-08-19T04:51:48.239Z,38.26
2022-08-19T04:54:37.578Z,38.25
2022-08-19T04:57:11.600Z,37.83
2022-08-19T04:59:43.069Z,37.79
2022-08-19T05:02:13.985Z,37.57
2022-08-19T05:04:45.135Z,37.11
2022-08-19T05:07:18.405Z,37.29
2022-08-19T05:09:57.925Z,37.18
2022-08-19T05:12:30.720Z,36.99
2022-08-19T05:15:02.031Z,37.01
2022-08-19T05:17:38.100Z,36.93
2022-08-19T05:20:29.273Z,37.07
2022-08-19T05:23:00.124Z,36.73
2022-08-19T05:25:30.842Z,36.82
2022-08-19T05:28:02.517Z,36.96
2022-08-19T05:30:46.841Z,37.04
2022-08-19T05:33:18.979Z,37.40
2022-08-19T05:35:50.551Z,37.11
2022-08-19T05:38:22.310Z,37.11
2022-08-19T05:40:52.982Z,37.63
2022-08-19T05:43:23.860Z,37.31
2022-08-19T05:45:54.771Z,37.32
2022-08-19T05:48:25.509Z,37.00
2022-08-19T05:50:56.298Z,37.36
2022-08-19T05:53:27.570Z,37.09
2022-08-19T05:55:58.608Z,37.42
2022-08-19T05:58:29.871Z,37.49
2022-08-19T06:01:05.384Z,37.43
2022-08-19T06:03:38.366Z,37.58
2022-08-19T06:06:11.900Z,37.44
2022-08-19T06:08:43.990Z,37.48
2022-08-19T06:11:21.046Z,37.31
2022-08-19T06:13:59.690Z,37.54
2022-08-19T06:16:30.023Z,37.53
2022-08-19T06:19:01.798Z,37.63
2022-08-19T06:21:33.993Z,37.39
2022-08-19T06:24:05.834Z,37.33
2022-08-19T06:26:38.345Z,37.30
2022-08-19T06:29:23.468Z,36.94
2022-08-19T06:31:57.437Z,36.68
2022-08-19T06:34:30.249Z,36.83
2022-08-19T06:37:03.026Z,35.92
2022-08-19T06:39:36.708Z,36.56
2022-08-19T06:42:11.250Z,36.25
2022-08-19T06:44:48.292Z,35.95
2022-08-19T06:47:23.964Z,36.10
2022-08-19T06:50:05.445Z,35.94
2022-08-19T06:52:38.234Z,35.67
2022-08-19T06:55:10.827Z,35.85
2022-08-19T06:57:41.665Z,35.78
2022-08-19T07:00:14.978Z,35.51
2022-08-19T07:02:50.735Z,35.87
2022-08-19T07:05:28.084Z,35.90
2022-08-19T07:08:04.639Z,35.82
2022-08-19T07:10:36.302Z,35.91
2022-08-19T07:13:07.279Z,36.03
2022-08-19T07:15:39.988Z,35.78
2022-08-19T07:18:11.669Z,36.04
2022-08-19T07:20:44.100Z,36.30
2022-08-19T07:23:16.155Z,36.24
2022-08-19T07:25:51.378Z,36.46
2022-08-19T07:28:25.167Z,36.33
2022-08-19T07:30:58.516Z,36.25
2022-08-19T07:33:31.253Z,36.32
2022-08-19T07:36:03.462Z,36.38
2022-08-19T07:38:35.535Z,35.98
2022-08-19T07:41:06.478Z,36.03
2022-08-19T07:43:37.452Z,36.43
2022-08-19T07:48:47.788Z,36.42
2022-08-19T07:51:36.551Z,36.16
2022-08-19T07:54:07.902Z,36.26
2022-08-19T07:56:38.617Z,36.22
2022-08-19T07:59:10.305Z,36.03
2022-08-19T08:01:42.074Z,36.10
2022-08-19T08:04:30.843Z,35.85
2022-08-19T08:07:19.490Z,35.81
2022-08-19T08:09:50.426Z,35.87
2022-08-19T08:12:34.215Z,35.71
2022-08-19T08:15:12.849Z,35.63
2022-08-19T08:17:49.690Z,35.99
2022-08-19T08:20:22.726Z,35.75
2022-08-19T08:23:11.374Z,35.67
2022-08-19T08:25:42.110Z,35.91
2022-08-19T08:28:17.688Z,35.96
2022-08-19T08:30:50.884Z,35.92
2022-08-19T08:33:32.754Z,35.95
2022-08-19T08:36:07.002Z,36.08
2022-08-19T08:38:40.204Z,36.09
2022-08-19T08:41:21.287Z,35.91
2022-08-19T08:43:54.388Z,35.82
2022-08-19T08:46:30.867Z,36.04
2022-08-19T08:49:09.646Z,36.01
2022-08-19T08:51:44.482Z,36.03
2022-08-19T08:54:23.164Z,36.29
2022-08-19T08:56:56.118Z,36.22
2022-08-19T08:59:33.446Z,36.27
2022-08-19T09:02:04.309Z,36.13
2022-08-19T09:04:36.104Z,36.07
2022-08-19T09:07:34.952Z,36.17
2022-08-19T09:10:19.314Z,36.03
2022-08-19T09:13:01.629Z,36.04
2022-08-19T09:15:42.863Z,36.03
2022-08-19T09:18:18.144Z,36.28
2022-08-19T09:20:50.772Z,36.22
2022-08-19T09:23:26.931Z,36.07
2022-08-19T09:25:58.521Z,35.93
2022-08-19T09:28:30.438Z,36.27
2022-08-19T09:31:03.117Z,36.59
2022-08-19T09:33:34.294Z,36.32
2022-08-19T09:36:13.235Z,36.18
2022-08-19T09:38:52.692Z,36.30
2022-08-19T09:41:25.358Z,36.11
2022-08-19T09:44:00.880Z,36.13
2022-08-19T09:46:32.700Z,35.94
2022-08-19T09:49:07.286Z,36.03
2022-08-19T09:51:38.116Z,36.04
2022-08-19T09:54:11.289Z,36.21
2022-08-19T09:56:42.505Z,36.26
2022-08-19T09:59:13.650Z,36.04
2022-08-19T10:01:44.692Z,36.20
2022-08-19T10:04:20.295Z,35.95
2022-08-19T10:06:55.357Z,36.06
2022-08-19T10:09:34.369Z,35.97
2022-08-19T10:12:06.860Z,35.94
2022-08-19T10:14:42.210Z,35.94
2022-08-19T10:17:19.227Z,35.94
2022-08-19T10:19:55.890Z,35.90
2022-08-19T10:22:27.095Z,36.00
2022-08-19T10:24:58.018Z,35.89
2022-08-19T10:27:29.075Z,35.88
2022-08-19T10:30:03.497Z,35.79
2022-08-19T10:32:35.108Z,35.89
2022-08-19T10:35:09.164Z,35.92
2022-08-19T10:37:42.352Z,35.88
2022-08-19T10:40:29.418Z,35.83
2022-08-19T10:43:00.523Z,35.87
2022-08-19T10:45:31.551Z,35.81
2022-08-19T10:48:03.642Z,35.73
2022-08-19T10:50:52.690Z,35.91
2022-08-19T10:53:26.435Z,35.84
2022-08-19T10:56:14.762Z,35.77
2022-08-19T10:58:45.783Z,35.88
2022-08-19T11:01:16.783Z,35.87
2022-08-19T11:03:47.722Z,35.85
2022-08-19T11:06:18.921Z,35.78
2022-08-19T11:08:49.658Z,35.77
2022-08-19T11:11:20.664Z,35.70
2022-08-19T11:13:52.112Z,35.44
2022-08-19T11:16:25.695Z,35.61
2022-08-19T11:19:00.592Z,35.68
2022-08-19T11:21:34.299Z,35.57
2022-08-19T11:24:07.699Z,35.55
2022-08-19T11:26:40.408Z,35.52
2022-08-19T11:29:14.039Z,35.43
2022-08-19T11:31:47.894Z,35.55
2022-08-19T11:34:21.273Z,35.43
2022-08-19T11:36:53.721Z,35.44
2022-08-19T11:39:26.378Z,35.59
2022-08-19T11:41:57.200Z,35.65
2022-08-19T11:44:28.801Z,35.57
2022-08-19T11:47:08.984Z,35.62
2022-08-19T11:49:40.462Z,35.64
2022-08-19T11:52:11.816Z,35.68
2022-08-19T11:54:42.602Z,35.63
2022-08-19T11:57:13.441Z,35.67
2022-08-19T11:59:44.301Z,35.48
2022-08-19T12:02:16.507Z,35.70
2022-08-19T12:04:47.432Z,35.67
2022-08-19T12:07:18.205Z,35.63
2022-08-19T12:09:48.961Z,35.67
2022-08-19T12:12:20.178Z,35.69
2022-08-19T12:14:57.563Z,35.76
2022-08-19T12:17:29.841Z,35.75
2022-08-19T12:20:00.681Z,35.81
2022-08-19T12:22:31.484Z,35.90
2022-08-19T12:25:02.292Z,35.84
2022-08-19T12:27:40.261Z,35.76
2022-08-19T12:30:14.377Z,35.91
2022-08-19T12:32:45.316Z,35.64
2022-08-19T12:35:16.172Z,35.94
2022-08-19T12:37:53.558Z,35.91
2022-08-19T12:40:28.506Z,36.08
2022-08-19T12:42:59.361Z,36.14
2022-08-19T12:45:30.609Z,35.96
2022-08-19T12:48:01.543Z,35.88
2022-08-19T12:50:52.313Z,35.83
2022-08-19T12:53:23.255Z,35.86
2022-08-19T12:56:00.797Z,35.90
2022-08-19T12:58:31.840Z,35.73
2022-08-19T13:01:07.888Z,35.59
2022-08-19T13:03:40.575Z,35.43
2022-08-19T13:06:12.467Z,35.45
2022-08-19T13:08:43.375Z,35.26
2022-08-19T13:11:20.468Z,35.26
2022-08-19T13:13:53.065Z,35.43
2022-08-19T13:16:24.298Z,35.41
2022-08-19T13:18:55.027Z,35.56
2022-08-19T13:21:28.958Z,35.70
2022-08-19T13:24:00.437Z,35.50
2022-08-19T13:26:31.512Z,35.50
2022-08-19T13:29:20.175Z,35.58
2022-08-19T13:32:08.867Z,35.41
2022-08-19T13:34:43.965Z,35.39
2022-08-19T13:37:14.699Z,35.35
2022-08-19T13:39:46.115Z,35.57
2022-08-19T13:42:19.226Z,35.57
2022-08-19T13:44:49.950Z,35.19
2022-08-19T13:47:21.008Z,35.59
2022-08-19T13:49:51.964Z,35.58
2022-08-19T13:52:22.681Z,35.78
2022-08-19T13:54:53.840Z,35.86
2022-08-19T13:57:24.678Z,35.80
2022-08-19T13:59:55.731Z,35.81
2022-08-19T14:02:27.181Z,35.75
2022-08-19T14:04:57.856Z,35.94
2022-08-19T14:07:29.908Z,35.88
2022-08-19T14:10:00.931Z,35.98
2022-08-19T14:12:33.046Z,35.92
2022-08-19T14:15:05.695Z,35.84
2022-08-19T14:17:36.834Z,35.76
2022-08-19T14:20:17.794Z,35.83
2022-08-19T14:22:50.433Z,35.97
2022-08-19T14:25:23.490Z,35.99
2022-08-19T14:27:52.778Z,35.87
2022-08-19T14:30:26.531Z,36.15
2022-08-19T14:32:57.993Z,35.94
2022-08-19T14:35:30.957Z,36.27
2022-08-19T14:38:01.952Z,36.26
2022-08-19T14:40:33.306Z,36.12
2022-08-19T14:43:06.270Z,36.17
2022-08-19T14:45:41.037Z,36.39
2022-08-19T14:48:18.994Z,36.13
2022-08-19T14:50:50.402Z,36.35
2022-08-19T14:53:21.447Z,36.58
2022-08-19T14:55:52.395Z,36.55
2022-08-19T14:58:29.515Z,36.59
2022-08-19T15:01:01.724Z,36.34
2022-08-19T15:03:33.819Z,36.70
2022-08-19T15:06:07.252Z,36.50
2022-08-19T15:08:40.018Z,36.85
2022-08-19T15:11:15.461Z,36.57
2022-08-19T15:13:47.537Z,36.44
2022-08-19T15:16:19.274Z,36.32
2022-08-19T15:18:52.019Z,36.20
2022-08-19T15:21:26.596Z,36.02
2022-08-19T15:23:59.931Z,35.78
2022-08-19T15:26:33.390Z,35.73
2022-08-19T15:29:06.166Z,35.42
2022-08-19T15:31:38.249Z,35.49
2022-08-19T15:34:09.688Z,35.44
2022-08-19T15:36:40.782Z,35.12
2022-08-19T15:39:12.294Z,35.07
2022-08-19T15:41:45.216Z,34.85
2022-08-19T15:44:18.682Z,34.73
2022-08-19T15:46:50.361Z,34.97
2022-08-19T15:49:23.022Z,34.65
2022-08-19T15:51:54.484Z,34.63
2022-08-19T15:54:25.536Z,34.55
2022-08-19T15:57:14.094Z,34.65
2022-08-19T16:00:03.112Z,34.60
2022-08-19T16:02:53.474Z,34.67
2022-08-19T16:05:46.037Z,34.64
2022-08-19T16:08:17.305Z,35.01
2022-08-19T16:10:48.205Z,35.23
2022-08-19T16:13:19.103Z,35.14
2022-08-19T16:15:49.879Z,35.39
2022-08-19T16:18:20.762Z,35.39
2022-08-19T16:20:51.690Z,35.54
2022-08-19T16:23:22.678Z,35.37
2022-08-19T16:25:53.687Z,35.27
2022-08-19T16:28:24.404Z,35.22
2022-08-19T16:30:55.593Z,34.90
2022-08-19T16:33:26.265Z,34.87
2022-08-19T16:36:00.363Z,35.01
2022-08-19T16:38:38.150Z,34.97
2022-08-19T16:41:09.304Z,35.00
2022-08-19T16:43:40.129Z,34.78
2022-08-19T16:46:12.620Z,34.80
2022-08-19T16:48:49.071Z,34.45
2022-08-19T16:51:20.485Z,34.58
2022-08-19T16:53:53.040Z,34.31
2022-08-19T16:56:25.682Z,34.34
2022-08-19T16:58:59.726Z,34.28
2022-08-19T17:01:31.371Z,34.56
2022-08-19T17:04:02.216Z,34.55
2022-08-19T17:06:33.864Z,34.33
2022-08-19T17:09:06.188Z,34.23
2022-08-19T17:11:37.095Z,34.20
2022-08-19T17:14:08.661Z,34.02
2022-08-19T17:16:40.491Z,33.99
2022-08-19T17:19:11.459Z,33.77
2022-08-19T17:21:42.194Z,34.02
2022-08-19T17:24:12.887Z,33.83
2022-08-19T17:26:44.022Z,33.71
2022-08-19T17:29:15.062Z,33.50
2022-08-19T17:31:45.890Z,33.64
2022-08-19T17:34:17.405Z,33.64
2022-08-19T17:36:48.857Z,33.83
2022-08-19T17:39:20.003Z,33.66
2022-08-19T17:41:51.174Z,33.81
2022-08-19T17:44:22.098Z,33.65
2022-08-19T17:46:53.546Z,33.72
2022-08-19T17:49:24.738Z,33.78
2022-08-19T17:51:55.555Z,33.67
2022-08-19T17:54:33.389Z,33.83
2022-08-19T17:57:05.127Z,33.93
2022-08-19T17:59:37.476Z,34.28
2022-08-19T18:02:10.631Z,34.39
2022-08-19T18:04:39.932Z,34.50
2022-08-19T18:07:10.892Z,34.76
2022-08-19T18:09:49.560Z,34.81
2022-08-19T18:12:26.786Z,34.74
2022-08-19T18:14:59.073Z,34.77
2022-08-19T18:17:30.342Z,34.85
2022-08-19T18:20:01.310Z,34.83
2022-08-19T18:22:35.632Z,34.55
2022-08-19T18:25:11.298Z,34.69
2022-08-19T18:27:43.464Z,34.58
2022-08-19T18:30:15.646Z,34.42
2022-08-19T18:32:49.616Z,34.40
2022-08-19T18:35:26.262Z,34.36
2022-08-19T18:37:57.753Z,34.42
2022-08-19T18:40:47.839Z,34.36
2022-08-19T18:43:36.158Z,34.57
2022-08-19T18:46:25.372Z,34.46
2022-08-19T18:49:05.422Z,34.50
2022-08-19T18:51:39.412Z,34.39
2022-08-19T18:54:12.779Z,34.34
2022-08-19T18:56:44.928Z,34.34
2022-08-19T18:59:21.329Z,34.56
2022-08-19T19:01:54.619Z,34.42
2022-08-19T19:04:28.326Z,34.53
2022-08-19T19:07:00.285Z,34.25
2022-08-19T19:09:31.129Z,34.45
2022-08-19T19:12:05.358Z,34.37
2022-08-19T19:14:49.198Z,34.20
2022-08-19T19:17:28.578Z,34.09
2022-08-19T19:19:59.561Z,34.23
2022-08-19T19:22:30.631Z,34.38
2022-08-19T19:25:01.776Z,34.29
2022-08-19T19:27:33.004Z,34.44
2022-08-19T19:30:03.878Z,34.27
2022-08-19T19:32:39.154Z,34.34
2022-08-19T19:35:11.631Z,34.21
2022-08-19T19:37:43.559Z,34.20
2022-08-19T19:40:14.649Z,34.35
2022-08-19T19:42:45.414Z,34.08
2022-08-19T19:45:16.826Z,34.31
2022-08-19T19:47:50.192Z,34.14
2022-08-19T19:50:21.491Z,34.12
2022-08-19T19:52:52.176Z,34.03
2022-08-19T19:55:26.499Z,34.00
2022-08-19T19:57:58.658Z,33.97
2022-08-19T20:00:30.055Z,33.82
2022-08-19T20:03:00.981Z,33.97
2022-08-19T20:05:31.917Z,33.85
2022-08-19T20:08:20.430Z,34.00
2022-08-19T20:10:51.268Z,33.89
2022-08-19T20:13:22.263Z,33.76
2022-08-19T20:15:53.190Z,33.81
2022-08-19T20:18:24.624Z,33.68
2022-08-19T20:20:55.484Z,33.67
2022-08-19T20:23:26.762Z,33.77
2022-08-19T20:25:58.186Z,33.86
2022-08-19T20:28:30.251Z,33.85
2022-08-19T20:31:01.050Z,33.85
2022-08-19T20:33:32.305Z,33.83
2022-08-19T20:36:03.386Z,33.79
2022-08-19T20:38:35.429Z,34.09
2022-08-19T20:41:06.704Z,34.03
2022-08-19T20:43:37.830Z,33.99
2022-08-19T20:46:09.017Z,34.04
2022-08-19T20:48:42.368Z,34.00
2022-08-19T20:51:14.135Z,34.24
2022-08-19T20:53:45.512Z,34.11
2022-08-19T20:56:16.248Z,34.24
2022-08-19T20:58:51.841Z,34.08
2022-08-19T21:01:25.439Z,34.32
2022-08-19T21:03:56.323Z,34.47
2022-08-19T21:06:27.022Z,34.33
2022-08-19T21:08:58.718Z,34.61
2022-08-19T21:11:29.442Z,34.56
2022-08-19T21:14:04.329Z,34.71
2022-08-19T21:16:35.349Z,35.11
2022-08-19T21:19:06.706Z,35.51
2022-08-19T21:21:37.523Z,35.47
2022-08-19T21:24:09.162Z,35.74
2022-08-19T21:26:40.017Z,35.91
2022-08-19T21:29:10.899Z,36.01
2022-08-19T21:31:41.853Z,36.27
2022-08-19T21:34:12.685Z,36.43
2022-08-19T21:36:43.372Z,36.36
2022-08-19T21:39:14.104Z,36.55
2022-08-19T21:41:44.786Z,36.69
2022-08-19T21:44:15.589Z,36.81
2022-08-19T21:46:50.510Z,36.61
2022-08-19T21:49:22.399Z,36.88
2022-08-19T21:51:53.242Z,36.97
2022-08-19T21:54:24.014Z,36.95
2022-08-19T21:56:54.779Z,37.23
2022-08-19T21:59:25.534Z,37.32
2022-08-19T22:02:10.627Z,37.25
2022-08-19T22:04:47.560Z,37.11
2022-08-19T22:07:18.366Z,37.31
2022-08-19T22:09:50.821Z,37.18
2022-08-19T22:12:27.526Z,37.27
2022-08-19T22:14:59.996Z,37.38
2022-08-19T22:17:33.061Z,37.34
2022-08-19T22:20:02.178Z,37.26
2022-08-19T22:22:34.516Z,37.40
2022-08-19T22:25:09.540Z,37.24
2022-08-19T22:27:40.302Z,37.89
2022-08-19T22:30:18.663Z,37.56
2022-08-19T22:32:56.091Z,37.68
2022-08-19T22:35:29.733Z,37.61
2022-08-19T22:38:01.403Z,37.67
2022-08-19T22:40:33.895Z,37.67
2022-08-19T22:43:09.330Z,37.35
2022-08-19T22:45:40.635Z,37.59
2022-08-19T22:48:13.665Z,37.67
2022-08-19T22:51:06.802Z,37.49
2022-08-19T22:53:39.146Z,37.51
2022-08-19T22:56:15.105Z,37.72
2022-08-19T22:58:49.972Z,37.47
2022-08-19T23:01:27.280Z,37.69
2022-08-19T23:04:03.758Z,37.55
2022-08-19T23:06:39.111Z,37.33
2022-08-19T23:09:16.581Z,37.28
2022-08-19T23:11:47.943Z,37.39
2022-08-19T23:14:19.560Z,37.32
2022-08-19T23:16:51.392Z,37.48
2022-08-19T23:19:23.446Z,37.32
2022-08-19T23:21:54.254Z,37.33
2022-08-19T23:24:25.106Z,37.13
2022-08-19T23:27:13.791Z,36.87
2022-08-19T23:30:02.324Z,37.08
2022-08-19T23:32:36.645Z,37.07
2022-08-19T23:35:08.624Z,36.97
2022-08-19T23:37:39.372Z,37.19
2022-08-19T23:40:12.434Z,37.17
2022-08-19T23:42:43.044Z,37.27
2022-08-19T23:45:14.862Z,37.44
2022-08-19T23:47:53.473Z,37.01
2022-08-19T23:50:25.480Z,37.46
2022-08-19T23:52:59.018Z,37.05
2022-08-19T23:55:33.499Z,36.94
2022-08-19T23:58:05.710Z,37.34
